Time;durP1;ratioP1;P1;durP2;ratioP2;P2;SDS_P1;SDS_P2;PMS_P1;PMS_P2;Temp;Humidity;BMP_temperature;BMP_pressure;BME280_temperature;BME280_humidity;BME280_pressure;Samples;Min_cycle;Max_cycle;Signal;HPM_P1;HPM_P2
2023/06/25 00:00:44;;;;;;;;;;;26.90;50.90;;;;;;3053276;19;4561;-29
2023/06/25 00:01:44;;;;;;;;;;;26.90;50.80;;;;;;3053244;19;4575;-28
2023/06/25 00:02:45;;;;;;;;;;;26.90;50.90;;;;;;3052414;19;4513;-29
2023/06/25 00:03:46;;;;;;;;;;;26.90;50.90;;;;;;3050381;19;4577;-31
2023/06/25 00:04:46;;;;;;;;;;;26.90;50.80;;;;;;3052123;19;4572;-29
2023/06/25 00:05:47;;;;;;;;;;;26.90;50.90;;;;;;3053067;19;4478;-30
2023/06/25 00:06:48;;;;;;;;;;;26.90;50.90;;;;;;3053294;19;4473;-27
2023/06/25 00:07:48;;;;;;;;;;;26.90;50.90;;;;;;3052437;19;4680;-30
2023/06/25 00:08:49;;;;;;;;;;;26.90;50.80;;;;;;3052592;19;4455;-29
2023/06/25 00:09:54;;;;;;;;;;;26.90;50.90;;;;;;3051407;19;4529;-29
2023/06/25 00:10:54;;;;;;;;;;;26.90;50.90;;;;;;3053424;19;4535;-31
2023/06/25 00:11:55;;;;;;;;;;;26.90;50.80;;;;;;3052323;19;4612;-28
2023/06/25 00:12:56;;;;;;;;;;;26.90;50.90;;;;;;3052771;19;4505;-28
2023/06/25 00:13:56;;;;;;;;;;;26.90;50.90;;;;;;3052835;19;4468;-27
2023/06/25 00:14:57;;;;;;;;;;;26.90;50.80;;;;;;3052694;19;4309;-26
2023/06/25 00:15:57;;;;;;;;;;;26.90;50.80;;;;;;3052401;19;5050;-29
2023/06/25 00:16:59;;;;;;;;;;;26.90;50.80;;;;;;3053293;19;4478;-30
2023/06/25 00:17:59;;;;;;;;;;;26.90;50.80;;;;;;3052216;19;4465;-29
2023/06/25 00:19:00;;;;;;;;;;;26.90;50.80;;;;;;3052216;19;4463;-27
2023/06/25 00:20:01;;;;;;;;;;;26.90;50.80;;;;;;3052478;19;4339;-33
2023/06/25 00:21:03;;;;;;;;;;;26.90;50.80;;;;;;3053451;19;4442;-32
2023/06/25 00:22:04;;;;;;;;;;;26.80;50.80;;;;;;3052525;19;4500;-27
2023/06/25 00:23:05;;;;;;;;;;;26.80;50.70;;;;;;3053707;19;4470;-26
2023/06/25 00:24:05;;;;;;;;;;;26.90;50.80;;;;;;3051650;19;4460;-28
2023/06/25 00:25:06;;;;;;;;;;;26.80;50.80;;;;;;3050544;19;4695;-28
2023/06/25 00:26:07;;;;;;;;;;;26.90;50.80;;;;;;3053299;19;4167;-29
2023/06/25 00:27:07;;;;;;;;;;;26.90;50.80;;;;;;3051660;19;4618;-29
2023/06/25 00:28:08;;;;;;;;;;;26.80;50.80;;;;;;3053144;19;4585;-33
2023/06/25 00:29:09;;;;;;;;;;;26.80;50.70;;;;;;3052088;19;4447;-29
2023/06/25 00:30:10;;;;;;;;;;;26.80;50.80;;;;;;3052108;19;4602;-27
2023/06/25 00:31:12;;;;;;;;;;;26.80;50.80;;;;;;3052101;19;4556;-33
2023/06/25 00:32:13;;;;;;;;;;;26.80;50.70;;;;;;3052026;19;4536;-29
2023/06/25 00:33:14;;;;;;;;;;;26.80;50.70;;;;;;3052559;19;4384;-30
2023/06/25 00:34:19;;;;;;;;;;;26.80;50.70;;;;;;3052754;19;4457;-32
2023/06/25 00:35:24;;;;;;;;;;;26.80;50.70;;;;;;3050487;19;4520;-30
2023/06/25 00:36:25;;;;;;;;;;;26.80;50.70;;;;;;3052624;19;4507;-28
2023/06/25 00:37:25;;;;;;;;;;;26.80;50.60;;;;;;3052290;19;4465;-31
2023/06/25 00:38:26;;;;;;;;;;;26.80;50.70;;;;;;3052703;19;4510;-29
2023/06/25 00:39:27;;;;;;;;;;;26.80;50.70;;;;;;3052227;19;4319;-27
2023/06/25 00:40:27;;;;;;;;;;;26.80;50.70;;;;;;3053512;19;4520;-30
2023/06/25 00:41:28;;;;;;;;;;;26.80;50.60;;;;;;3053199;19;4543;-28
2023/06/25 00:42:33;;;;;;;;;;;26.80;50.60;;;;;;3052992;19;4434;-26
2023/06/25 00:43:33;;;;;;;;;;;26.80;50.60;;;;;;3051737;19;4540;-29
2023/06/25 00:44:40;;;;;;;;;;;26.80;50.60;;;;;;3049966;19;4519;-29
2023/06/25 00:45:42;;;;;;;;;;;26.80;50.60;;;;;;3049920;19;4517;-30
2023/06/25 00:46:43;;;;;;;;;;;26.80;50.60;;;;;;3053130;19;4500;-29
2023/06/25 00:47:45;;;;;;;;;;;26.80;50.60;;;;;;3052878;19;4495;-31
2023/06/25 00:48:47;;;;;;;;;;;26.80;50.60;;;;;;3053310;19;4526;-27
2023/06/25 00:49:48;;;;;;;;;;;26.80;50.60;;;;;;3052343;19;4497;-34
2023/06/25 00:50:49;;;;;;;;;;;26.80;50.60;;;;;;3052776;19;4444;-31
2023/06/25 00:51:49;;;;;;;;;;;26.70;50.60;;;;;;3052036;19;4532;-29
2023/06/25 00:52:56;;;;;;;;;;;26.80;50.60;;;;;;3052072;19;4445;-29
2023/06/25 00:53:57;;;;;;;;;;;26.80;50.50;;;;;;3053121;19;4517;-30
2023/06/25 00:54:58;;;;;;;;;;;26.80;50.60;;;;;;3050999;19;4523;-29
2023/06/25 00:55:58;;;;;;;;;;;26.70;50.50;;;;;;3050460;19;4494;-27
2023/06/25 00:57:03;;;;;;;;;;;26.70;50.60;;;;;;3052550;19;4490;-29
2023/06/25 00:58:05;;;;;;;;;;;26.80;50.70;;;;;;3052114;19;4480;-28
2023/06/25 00:59:06;;;;;;;;;;;26.80;50.60;;;;;;3053181;19;4523;-27
2023/06/25 01:00:14;;;;;;;;;;;26.80;50.60;;;;;;3050955;19;4828;-31
2023/06/25 01:01:18;;;;;;;;;;;26.70;50.50;;;;;;3053257;19;4148;-25
2023/06/25 01:02:25;;;;;;;;;;;26.70;50.50;;;;;;3051311;19;4633;-26
2023/06/25 01:03:39;;;;;;;;;;;26.70;50.50;;;;;;3049692;19;4546;-23
2023/06/25 01:04:42;;;;;;;;;;;26.70;50.50;;;;;;3050437;19;4488;-26
2023/06/25 01:06:00;;;;;;;;;;;26.70;50.60;;;;;;3051859;19;4522;-27
2023/06/25 01:07:02;;;;;;;;;;;26.70;50.50;;;;;;3051729;19;4511;-26
2023/06/25 01:08:08;;;;;;;;;;;26.70;50.50;;;;;;3051516;19;4457;-26
2023/06/25 01:09:10;;;;;;;;;;;26.70;50.50;;;;;;3050231;19;4499;-26
2023/06/25 01:10:11;;;;;;;;;;;26.70;50.50;;;;;;3051670;19;4561;-25
2023/06/25 01:11:11;;;;;;;;;;;26.70;50.50;;;;;;3051608;19;4472;-24
2023/06/25 01:12:12;;;;;;;;;;;26.70;50.60;;;;;;3052529;19;1849;-24
2023/06/25 01:13:13;;;;;;;;;;;26.70;50.60;;;;;;3051454;19;4510;-23
2023/06/25 01:14:14;;;;;;;;;;;26.70;50.50;;;;;;3050022;19;4255;-26
2023/06/25 01:15:14;;;;;;;;;;;26.70;50.50;;;;;;3052194;19;4554;-24
2023/06/25 01:16:15;;;;;;;;;;;26.70;50.50;;;;;;3055509;19;4392;-24
2023/06/25 01:17:16;;;;;;;;;;;26.70;50.50;;;;;;3055048;19;4344;-23
2023/06/25 01:18:17;;;;;;;;;;;26.70;50.50;;;;;;3054701;19;4549;-28
2023/06/25 01:19:18;;;;;;;;;;;26.70;50.40;;;;;;3053931;19;4531;-26
2023/06/25 01:20:18;;;;;;;;;;;26.70;50.50;;;;;;3054708;19;4558;-26
2023/06/25 01:21:22;;;;;;;;;;;27.10;50.80;;;;;;3055068;19;4524;-24
2023/06/25 01:22:31;;;;;;;;;;;26.70;50.50;;;;;;3053905;19;4324;-25
2023/06/25 01:23:32;;;;;;;;;;;26.70;50.50;;;;;;3054797;19;4534;-25
2023/06/25 01:31:59;;;;;;;;;;;26.70;50.50;;;;;;3050576;19;5611;-81
2023/06/25 01:32:59;;;;;;;;;;;25.00;49.30;;;;;;3050721;19;5040;-81
2023/06/25 01:34:00;;;;;;;;;;;26.60;50.40;;;;;;3050283;19;5193;-82
2023/06/25 01:35:00;;;;;;;;;;;26.60;50.40;;;;;;3050294;19;5431;-83
2023/06/25 01:36:01;;;;;;;;;;;26.60;50.40;;;;;;3045947;19;5020;-31
2023/06/25 01:37:02;;;;;;;;;;;28.20;51.80;;;;;;3054908;19;4321;-29
2023/06/25 01:38:03;;;;;;;;;;;26.60;50.80;;;;;;3054038;19;4506;-28
2023/06/25 01:39:04;;;;;;;;;;;26.80;50.70;;;;;;3054998;19;4320;-28
2023/06/25 01:40:07;;;;;;;;;;;26.60;50.60;;;;;;3055263;19;4314;-31
2023/06/25 01:41:08;;;;;;;;;;;26.60;50.50;;;;;;3053243;19;4409;-29
2023/06/25 01:42:09;;;;;;;;;;;26.50;50.60;;;;;;3054477;19;4290;-30
2023/06/25 01:43:09;;;;;;;;;;;26.60;50.40;;;;;;3054567;19;4513;-31
2023/06/25 01:44:13;;;;;;;;;;;26.60;50.40;;;;;;3055392;19;4523;-27
2023/06/25 01:45:13;;;;;;;;;;;26.60;50.50;;;;;;3052901;19;4591;-27
2023/06/25 01:46:14;;;;;;;;;;;26.60;50.40;;;;;;3055261;19;4344;-27
2023/06/25 01:47:15;;;;;;;;;;;26.60;50.50;;;;;;3054631;19;4576;-27
2023/06/25 01:48:15;;;;;;;;;;;26.60;50.40;;;;;;3054510;19;4587;-29
2023/06/25 01:49:16;;;;;;;;;;;26.60;50.40;;;;;;3054923;19;4499;-28
2023/06/25 01:50:17;;;;;;;;;;;26.60;50.40;;;;;;3055368;19;4543;-29
2023/06/25 01:51:17;;;;;;;;;;;26.60;50.50;;;;;;3054987;19;4496;-27
2023/06/25 01:52:18;;;;;;;;;;;26.60;50.40;;;;;;3054799;19;4714;-27
2023/06/25 01:53:18;;;;;;;;;;;26.60;50.40;;;;;;3055142;19;4346;-29
2023/06/25 01:54:19;;;;;;;;;;;26.60;50.40;;;;;;3055273;19;4523;-28
2023/06/25 01:55:20;;;;;;;;;;;26.60;50.40;;;;;;3054222;19;4508;-28
2023/06/25 01:56:20;;;;;;;;;;;26.60;50.50;;;;;;3055504;19;4590;-31
2023/06/25 01:57:21;;;;;;;;;;;26.60;50.40;;;;;;3055813;19;4572;-28
2023/06/25 01:58:22;;;;;;;;;;;26.60;50.40;;;;;;3055089;19;4583;-31
2023/06/25 01:59:22;;;;;;;;;;;26.60;50.30;;;;;;3055230;19;4358;-27
2023/06/25 02:00:24;;;;;;;;;;;26.60;50.30;;;;;;3055652;19;4570;-29
2023/06/25 02:01:25;;;;;;;;;;;26.60;50.50;;;;;;3055783;19;4619;-29
2023/06/25 02:02:26;;;;;;;;;;;26.60;50.40;;;;;;3055018;19;4541;-28
2023/06/25 02:03:26;;;;;;;;;;;26.50;50.40;;;;;;3055802;19;4494;-31
2023/06/25 02:04:27;;;;;;;;;;;26.50;50.40;;;;;;3055603;19;4514;-33
2023/06/25 02:05:28;;;;;;;;;;;26.50;50.30;;;;;;3055172;19;4491;-27
2023/06/25 02:06:28;;;;;;;;;;;26.50;50.30;;;;;;3055563;19;4525;-29
2023/06/25 02:07:29;;;;;;;;;;;26.50;50.40;;;;;;3054932;19;4378;-30
2023/06/25 02:08:30;;;;;;;;;;;26.50;50.30;;;;;;3055286;19;4554;-29
2023/06/25 02:09:30;;;;;;;;;;;26.50;50.30;;;;;;3054891;19;4367;-27
2023/06/25 02:10:32;;;;;;;;;;;26.80;50.50;;;;;;3054328;19;4567;-27
2023/06/25 02:11:33;;;;;;;;;;;26.50;50.30;;;;;;3054545;19;4491;-29
2023/06/25 02:12:33;;;;;;;;;;;26.50;50.30;;;;;;3053750;19;4693;-27
2023/06/25 02:13:34;;;;;;;;;;;26.50;50.30;;;;;;3053899;19;4512;-29
2023/06/25 02:14:35;;;;;;;;;;;26.50;50.30;;;;;;3055273;19;4508;-28
2023/06/25 02:15:36;;;;;;;;;;;26.50;50.30;;;;;;3055161;19;4515;-28
2023/06/25 02:16:36;;;;;;;;;;;26.50;50.30;;;;;;3054792;19;4613;-29
2023/06/25 02:17:37;;;;;;;;;;;26.50;50.40;;;;;;3055080;19;4446;-30
2023/06/25 02:18:37;;;;;;;;;;;26.70;50.40;;;;;;3054818;19;4357;-29
2023/06/25 02:19:38;;;;;;;;;;;26.50;50.30;;;;;;3055447;19;4508;-28
2023/06/25 02:20:39;;;;;;;;;;;26.50;50.20;;;;;;3055141;19;4696;-29
2023/06/25 02:21:39;;;;;;;;;;;26.40;50.20;;;;;;3055618;19;4613;-30
2023/06/25 02:22:40;;;;;;;;;;;26.50;50.20;;;;;;3055452;19;4512;-28
2023/06/25 02:23:41;;;;;;;;;;;26.50;50.30;;;;;;3055359;19;4821;-29
2023/06/25 02:24:41;;;;;;;;;;;26.50;50.30;;;;;;3054981;19;4360;-27
2023/06/25 02:25:42;;;;;;;;;;;26.50;50.20;;;;;;3055233;19;4679;-30
2023/06/25 02:26:42;;;;;;;;;;;26.50;50.20;;;;;;3053896;19;4529;-27
2023/06/25 02:27:43;;;;;;;;;;;26.50;50.20;;;;;;3053774;19;4546;-28
2023/06/25 02:28:44;;;;;;;;;;;26.50;50.20;;;;;;3054320;19;4616;-29
2023/06/25 02:29:44;;;;;;;;;;;26.50;50.20;;;;;;3054301;19;4503;-29
2023/06/25 02:30:45;;;;;;;;;;;26.50;50.20;;;;;;3054508;19;4537;-29
2023/06/25 02:31:46;;;;;;;;;;;26.50;50.20;;;;;;3054553;19;4530;-29
2023/06/25 02:32:47;;;;;;;;;;;26.40;50.10;;;;;;3053951;19;4704;-30
2023/06/25 02:33:47;;;;;;;;;;;26.50;50.20;;;;;;3054940;19;4485;-29
2023/06/25 02:34:48;;;;;;;;;;;26.50;50.20;;;;;;3054327;19;4415;-31
2023/06/25 02:35:48;;;;;;;;;;;26.40;50.20;;;;;;3053530;19;4531;-30
2023/06/25 02:36:50;;;;;;;;;;;26.40;50.20;;;;;;3053258;19;4602;-27
2023/06/25 02:37:51;;;;;;;;;;;26.40;50.80;;;;;;3053674;19;4560;-26
2023/06/25 02:38:51;;;;;;;;;;;26.40;50.10;;;;;;3054133;19;4362;-30
2023/06/25 02:39:52;;;;;;;;;;;26.40;50.10;;;;;;3054404;19;4552;-29
2023/06/25 02:40:53;;;;;;;;;;;26.40;50.10;;;;;;3054888;19;4484;-27
2023/06/25 02:41:53;;;;;;;;;;;26.40;50.10;;;;;;3053887;19;4545;-27
2023/06/25 02:42:54;;;;;;;;;;;26.40;50.10;;;;;;3054433;19;4485;-27
2023/06/25 02:43:55;;;;;;;;;;;26.40;50.20;;;;;;3054759;19;4544;-22
2023/06/25 02:44:56;;;;;;;;;;;26.40;50.10;;;;;;3054066;19;4427;-23
2023/06/25 02:45:56;;;;;;;;;;;26.40;50.10;;;;;;3054422;19;4593;-25
2023/06/25 02:46:57;;;;;;;;;;;26.40;50.10;;;;;;3054770;19;4455;-23
2023/06/25 02:47:58;;;;;;;;;;;26.40;50.20;;;;;;3054381;19;4473;-25
2023/06/25 02:48:58;;;;;;;;;;;26.40;50.10;;;;;;3055215;19;4877;-28
2023/06/25 02:49:59;;;;;;;;;;;26.40;50.10;;;;;;3054084;19;4606;-23
2023/06/25 02:51:00;;;;;;;;;;;26.40;50.10;;;;;;3054986;19;4558;-25
2023/06/25 02:52:00;;;;;;;;;;;26.40;50.00;;;;;;3054142;19;4495;-27
2023/06/25 02:53:01;;;;;;;;;;;26.40;50.00;;;;;;3052870;19;4376;-26
2023/06/25 02:54:02;;;;;;;;;;;26.40;50.10;;;;;;3053916;19;4508;-28
2023/06/25 02:55:03;;;;;;;;;;;26.40;50.10;;;;;;3054152;19;4498;-28
2023/06/25 02:56:03;;;;;;;;;;;26.40;50.00;;;;;;3054551;19;4459;-28
2023/06/25 02:57:04;;;;;;;;;;;26.40;50.10;;;;;;3054409;19;4464;-26
2023/06/25 02:58:05;;;;;;;;;;;26.40;50.10;;;;;;3054229;19;4505;-28
2023/06/25 02:59:05;;;;;;;;;;;26.40;50.10;;;;;;3052540;19;21902;-25
2023/06/25 03:00:07;;;;;;;;;;;26.40;50.20;;;;;;3053382;19;4501;-29
2023/06/25 03:01:07;;;;;;;;;;;26.40;50.00;;;;;;3052768;19;4595;-31
2023/06/25 03:02:08;;;;;;;;;;;26.40;50.00;;;;;;3052469;19;4524;-32
2023/06/25 03:03:08;;;;;;;;;;;26.40;50.00;;;;;;3054363;19;4786;-26
2023/06/25 03:04:09;;;;;;;;;;;26.20;49.90;;;;;;3053828;19;4344;-32
2023/06/25 03:05:10;;;;;;;;;;;26.40;50.00;;;;;;3054170;19;4534;-28
2023/06/25 03:06:11;;;;;;;;;;;26.30;50.00;;;;;;3053824;19;4740;-27
2023/06/25 03:07:12;;;;;;;;;;;26.40;50.20;;;;;;3052620;19;4487;-26
2023/06/25 03:08:12;;;;;;;;;;;26.40;50.00;;;;;;3054142;19;991;-26
2023/06/25 03:09:13;;;;;;;;;;;26.30;50.00;;;;;;3053028;19;4447;-28
2023/06/25 03:10:13;;;;;;;;;;;26.30;50.00;;;;;;3054215;19;4538;-26
2023/06/25 03:11:14;;;;;;;;;;;26.40;50.00;;;;;;3053958;19;4537;-29
2023/06/25 03:12:15;;;;;;;;;;;26.30;50.00;;;;;;3053545;19;4637;-28
2023/06/25 03:13:15;;;;;;;;;;;26.30;49.90;;;;;;3053560;19;4489;-30
2023/06/25 03:14:16;;;;;;;;;;;26.30;49.90;;;;;;3052029;19;4543;-27
2023/06/25 03:15:19;;;;;;;;;;;26.30;50.00;;;;;;3052860;19;4461;-27
2023/06/25 03:16:20;;;;;;;;;;;26.30;50.00;;;;;;3053318;19;4503;-30
2023/06/25 03:17:21;;;;;;;;;;;26.30;49.90;;;;;;3054097;19;4508;-29
2023/06/25 03:18:21;;;;;;;;;;;26.30;50.50;;;;;;3053440;19;4556;-27
2023/06/25 03:19:22;;;;;;;;;;;26.30;49.90;;;;;;3052973;19;4517;-30
2023/06/25 03:20:23;;;;;;;;;;;26.30;49.90;;;;;;3054140;19;4592;-31
2023/06/25 03:21:23;;;;;;;;;;;26.30;49.90;;;;;;3053754;19;4498;-31
2023/06/25 03:22:24;;;;;;;;;;;26.30;49.90;;;;;;3054345;19;4796;-28
2023/06/25 03:23:25;;;;;;;;;;;26.30;49.80;;;;;;3054381;19;4503;-29
2023/06/25 03:24:25;;;;;;;;;;;26.30;49.90;;;;;;3052107;19;4548;-30
2023/06/25 03:25:26;;;;;;;;;;;26.30;49.90;;;;;;3052984;19;4499;-27
2023/06/25 03:26:26;;;;;;;;;;;26.30;49.90;;;;;;3053666;19;4526;-30
2023/06/25 03:27:27;;;;;;;;;;;26.30;49.90;;;;;;3054347;19;4506;-28
2023/06/25 03:28:28;;;;;;;;;;;26.30;49.90;;;;;;3052684;19;4598;-29
2023/06/25 03:29:28;;;;;;;;;;;26.30;49.90;;;;;;3053560;19;4527;-27
2023/06/25 03:30:29;;;;;;;;;;;26.30;49.90;;;;;;3053563;19;4470;-25
2023/06/25 03:31:29;;;;;;;;;;;26.30;49.80;;;;;;3054080;19;4497;-28
2023/06/25 03:32:30;;;;;;;;;;;26.30;49.80;;;;;;3053169;19;4479;-31
2023/06/25 03:33:31;;;;;;;;;;;26.30;49.80;;;;;;3053824;19;4570;-28
2023/06/25 03:34:31;;;;;;;;;;;26.30;49.80;;;;;;3053921;19;4497;-29
2023/06/25 03:35:32;;;;;;;;;;;26.30;49.80;;;;;;3053545;19;4503;-29
2023/06/25 03:36:32;;;;;;;;;;;26.30;49.90;;;;;;3053939;19;4523;-29
2023/06/25 03:37:33;;;;;;;;;;;26.30;50.50;;;;;;3053161;19;4536;-26
2023/06/25 03:38:34;;;;;;;;;;;26.30;50.40;;;;;;3051313;19;4528;-29
2023/06/25 03:39:34;;;;;;;;;;;26.30;49.70;;;;;;3053409;19;4527;-28
2023/06/25 03:40:35;;;;;;;;;;;26.40;49.60;;;;;;3052948;19;4490;-27
2023/06/25 03:41:36;;;;;;;;;;;26.50;49.50;;;;;;3053691;19;4738;-26
2023/06/25 03:42:36;;;;;;;;;;;26.60;49.30;;;;;;3053664;19;4688;-29
2023/06/25 03:43:37;;;;;;;;;;;26.60;49.20;;;;;;3053057;19;4306;-28
2023/06/25 03:44:45;;;;;;;;;;;26.60;49.10;;;;;;3053598;19;4516;-28
2023/06/25 03:45:45;;;;;;;;;;;26.70;49.10;;;;;;3053582;19;4625;-30
2023/06/25 03:46:46;;;;;;;;;;;26.70;49.80;;;;;;3053683;19;4376;-30
2023/06/25 03:47:47;;;;;;;;;;;26.70;48.90;;;;;;3053949;19;4478;-28
2023/06/25 03:48:47;;;;;;;;;;;26.70;49.10;;;;;;3054076;19;4532;-27
2023/06/25 03:49:48;;;;;;;;;;;26.70;48.90;;;;;;3053944;19;4510;-27
2023/06/25 03:50:48;;;;;;;;;;;26.70;49.00;;;;;;3053917;19;4523;-29
2023/06/25 03:51:49;;;;;;;;;;;26.70;48.90;;;;;;3053903;19;4484;-26
2023/06/25 03:52:50;;;;;;;;;;;26.70;48.80;;;;;;3053502;19;4728;-27
2023/06/25 03:53:50;;;;;;;;;;;26.70;48.90;;;;;;3054060;19;4506;-29
2023/06/25 03:54:51;;;;;;;;;;;26.70;48.90;;;;;;3032692;19;4456;-26
2023/06/25 03:55:52;;;;;;;;;;;26.70;48.80;;;;;;3052322;19;4488;-26
2023/06/25 03:56:52;;;;;;;;;;;26.70;48.90;;;;;;3051431;19;4401;-25
2023/06/25 03:57:56;;;;;;;;;;;26.70;48.80;;;;;;3053855;19;4500;-28
2023/06/25 03:58:56;;;;;;;;;;;26.70;48.80;;;;;;3052542;19;4461;-25
2023/06/25 03:59:57;;;;;;;;;;;26.70;48.80;;;;;;3053191;19;4468;-26
2023/06/25 04:00:57;;;;;;;;;;;26.70;48.90;;;;;;3051767;19;4358;-23
2023/06/25 04:01:58;;;;;;;;;;;26.60;48.80;;;;;;3052788;19;4317;-23
2023/06/25 04:02:59;;;;;;;;;;;26.70;48.90;;;;;;3052878;19;4469;-27
2023/06/25 04:03:59;;;;;;;;;;;26.70;48.90;;;;;;3052751;19;4476;-24
2023/06/25 04:05:00;;;;;;;;;;;26.70;48.90;;;;;;3052848;19;4483;-27
2023/06/25 04:06:01;;;;;;;;;;;26.70;48.90;;;;;;3052122;19;4445;-29
2023/06/25 04:07:01;;;;;;;;;;;26.70;48.80;;;;;;3051898;19;4429;-30
2023/06/25 04:08:02;;;;;;;;;;;26.70;48.80;;;;;;3052800;19;4547;-28
2023/06/25 04:09:03;;;;;;;;;;;26.70;48.80;;;;;;3053472;19;4468;-26
2023/06/25 04:10:04;;;;;;;;;;;26.80;48.70;;;;;;3053821;19;4432;-27
2023/06/25 04:11:05;;;;;;;;;;;26.80;48.60;;;;;;3053019;19;4428;-29
2023/06/25 04:12:06;;;;;;;;;;;26.80;48.50;;;;;;3050907;19;4519;-26
2023/06/25 04:13:07;;;;;;;;;;;26.90;48.50;;;;;;3052280;19;4735;-29
2023/06/25 04:14:07;;;;;;;;;;;26.90;48.30;;;;;;3052574;19;4508;-28
2023/06/25 04:15:08;;;;;;;;;;;26.90;48.40;;;;;;3053080;19;4500;-31
2023/06/25 04:16:09;;;;;;;;;;;26.90;48.30;;;;;;3053047;19;4348;-28
2023/06/25 04:17:10;;;;;;;;;;;26.90;48.30;;;;;;3052999;19;4531;-26
2023/06/25 04:18:10;;;;;;;;;;;26.90;49.00;;;;;;3052183;19;4541;-27
2023/06/25 04:19:11;;;;;;;;;;;26.90;48.30;;;;;;3051605;19;4654;-30
2023/06/25 04:20:11;;;;;;;;;;;26.90;48.40;;;;;;3051719;19;4581;-30
2023/06/25 04:21:12;;;;;;;;;;;26.90;48.30;;;;;;3053173;19;4619;-28
2023/06/25 04:22:13;;;;;;;;;;;26.90;48.30;;;;;;3053567;19;4564;-27
2023/06/25 04:23:13;;;;;;;;;;;26.80;48.20;;;;;;3053758;19;4556;-32
2023/06/25 04:24:14;;;;;;;;;;;26.80;48.30;;;;;;3053158;19;4416;-29
2023/06/25 04:25:15;;;;;;;;;;;26.90;48.40;;;;;;3053673;19;4547;-27
2023/06/25 04:26:15;;;;;;;;;;;26.80;48.40;;;;;;3053743;19;4608;-25
2023/06/25 04:27:16;;;;;;;;;;;26.90;48.50;;;;;;3053454;19;4500;-30
2023/06/25 04:28:16;;;;;;;;;;;26.80;48.40;;;;;;3052762;19;4557;-28
2023/06/25 04:29:17;;;;;;;;;;;26.90;48.50;;;;;;3051093;19;4521;-25
2023/06/25 04:30:18;;;;;;;;;;;26.80;48.40;;;;;;3052842;19;4642;-28
2023/06/25 04:31:20;;;;;;;;;;;26.80;48.40;;;;;;3051969;19;4526;-28
2023/06/25 04:32:21;;;;;;;;;;;26.80;48.40;;;;;;3052417;19;4656;-25
2023/06/25 04:33:22;;;;;;;;;;;26.80;48.40;;;;;;3052390;19;4564;-31
2023/06/25 04:34:22;;;;;;;;;;;26.80;48.40;;;;;;3052080;19;4551;-29
2023/06/25 04:35:23;;;;;;;;;;;26.80;48.50;;;;;;3052017;19;4508;-29
2023/06/25 04:36:23;;;;;;;;;;;26.80;48.50;;;;;;3051754;19;4723;-29
2023/06/25 04:37:24;;;;;;;;;;;26.80;48.50;;;;;;3052885;19;4734;-28
2023/06/25 04:38:25;;;;;;;;;;;26.80;48.90;;;;;;3052200;19;4552;-29
2023/06/25 04:39:25;;;;;;;;;;;26.80;48.60;;;;;;3053772;19;4509;-28
2023/06/25 04:40:26;;;;;;;;;;;26.70;48.50;;;;;;3052766;19;4527;-30
2023/06/25 04:41:27;;;;;;;;;;;26.80;48.50;;;;;;3052426;19;4378;-28
2023/06/25 04:42:27;;;;;;;;;;;26.90;48.50;;;;;;3052504;19;4555;-27
2023/06/25 04:43:28;;;;;;;;;;;26.90;48.30;;;;;;3052726;19;4370;-31
2023/06/25 04:44:28;;;;;;;;;;;27.00;48.20;;;;;;3053457;19;4703;-25
2023/06/25 04:45:29;;;;;;;;;;;26.90;48.10;;;;;;3053701;19;4511;-30
2023/06/25 04:46:30;;;;;;;;;;;27.00;48.10;;;;;;3053038;19;4561;-28
2023/06/25 04:47:32;;;;;;;;;;;27.00;48.00;;;;;;3052892;19;4518;-30
2023/06/25 04:48:32;;;;;;;;;;;27.00;48.00;;;;;;3052582;19;4566;-26
2023/06/25 04:49:33;;;;;;;;;;;27.00;48.00;;;;;;3053016;19;4706;-31
2023/06/25 04:50:34;;;;;;;;;;;27.00;48.10;;;;;;3055469;19;4543;-28
2023/06/25 04:51:34;;;;;;;;;;;27.00;48.00;;;;;;3053685;19;4517;-28
2023/06/25 04:52:35;;;;;;;;;;;27.00;48.00;;;;;;3050204;19;4668;-28
2023/06/25 04:53:36;;;;;;;;;;;27.00;48.00;;;;;;3053549;19;4545;-27
2023/06/25 04:54:36;;;;;;;;;;;27.00;48.10;;;;;;3052492;19;4551;-29
2023/06/25 04:55:37;;;;;;;;;;;27.00;48.10;;;;;;3054396;19;4478;-27
2023/06/25 04:56:38;;;;;;;;;;;27.00;48.00;;;;;;3053940;19;4529;-27
2023/06/25 04:57:38;;;;;;;;;;;27.00;48.10;;;;;;3055143;19;4520;-27
2023/06/25 04:58:39;;;;;;;;;;;27.00;48.20;;;;;;3053035;19;4310;-28
2023/06/25 04:59:40;;;;;;;;;;;27.00;48.20;;;;;;3054950;19;4521;-27
2023/06/25 05:00:40;;;;;;;;;;;26.90;48.20;;;;;;3054539;19;4506;-30
2023/06/25 05:01:41;;;;;;;;;;;26.90;48.20;;;;;;3052736;19;4358;-28
2023/06/25 05:02:42;;;;;;;;;;;26.90;48.30;;;;;;3054370;19;4550;-26
2023/06/25 05:03:42;;;;;;;;;;;26.90;48.40;;;;;;3055460;19;4464;-28
2023/06/25 05:04:43;;;;;;;;;;;26.90;48.40;;;;;;3054308;19;4515;-26
2023/06/25 05:05:44;;;;;;;;;;;26.90;48.30;;;;;;3053646;19;4512;-26
2023/06/25 05:06:45;;;;;;;;;;;26.90;48.40;;;;;;3055184;19;4642;-22
2023/06/25 05:07:47;;;;;;;;;;;26.90;48.40;;;;;;3054479;19;4509;-26
2023/06/25 05:08:48;;;;;;;;;;;26.90;48.40;;;;;;3054955;19;4533;-23
2023/06/25 05:09:48;;;;;;;;;;;26.90;48.40;;;;;;3053354;19;4406;-24
2023/06/25 05:10:49;;;;;;;;;;;26.90;48.40;;;;;;3053023;19;4545;-27
2023/06/25 05:11:49;;;;;;;;;;;26.90;48.50;;;;;;3054277;19;4508;-26
2023/06/25 05:12:50;;;;;;;;;;;26.90;48.60;;;;;;3053985;19;4340;-22
2023/06/25 05:13:51;;;;;;;;;;;26.90;48.60;;;;;;3053798;19;4353;-25
2023/06/25 05:14:52;;;;;;;;;;;26.90;48.50;;;;;;3055602;19;4555;-27
2023/06/25 05:15:52;;;;;;;;;;;26.90;48.60;;;;;;3053871;19;4357;-26
2023/06/25 05:16:53;;;;;;;;;;;26.90;48.60;;;;;;3053264;19;4367;-24
2023/06/25 05:17:53;;;;;;;;;;;26.90;48.70;;;;;;3054652;19;4518;-23
2023/06/25 05:18:54;;;;;;;;;;;26.80;48.60;;;;;;3055491;19;4532;-24
2023/06/25 05:19:55;;;;;;;;;;;26.90;48.70;;;;;;3054840;19;4464;-24
2023/06/25 05:20:55;;;;;;;;;;;26.90;48.70;;;;;;3051961;19;4478;-23
2023/06/25 05:21:56;;;;;;;;;;;26.90;48.60;;;;;;3053130;19;4291;-23
2023/06/25 05:22:57;;;;;;;;;;;26.90;48.50;;;;;;3054706;19;4482;-25
2023/06/25 05:23:58;;;;;;;;;;;27.00;48.50;;;;;;3052877;19;4688;-23
2023/06/25 05:24:59;;;;;;;;;;;27.10;48.50;;;;;;3053579;19;4483;-22
2023/06/25 05:26:00;;;;;;;;;;;27.00;48.30;;;;;;3054619;19;4521;-24
2023/06/25 05:27:00;;;;;;;;;;;27.00;48.40;;;;;;3053354;19;4502;-26
2023/06/25 05:28:02;;;;;;;;;;;26.90;48.30;;;;;;3053161;19;4613;-23
2023/06/25 05:29:02;;;;;;;;;;;27.00;48.40;;;;;;3053315;19;4486;-23
2023/06/25 05:30:03;;;;;;;;;;;27.00;48.40;;;;;;3053060;19;4468;-25
2023/06/25 05:31:05;;;;;;;;;;;27.00;48.60;;;;;;3053342;19;4515;-25
2023/06/25 05:32:06;;;;;;;;;;;27.00;48.60;;;;;;3052951;19;12490;-24
2023/06/25 05:33:07;;;;;;;;;;;27.00;48.70;;;;;;3053282;19;4607;-25
2023/06/25 05:34:08;;;;;;;;;;;27.00;48.60;;;;;;3052076;19;4540;-24
2023/06/25 05:35:08;;;;;;;;;;;27.00;48.70;;;;;;3053052;19;4648;-26
2023/06/25 05:36:11;;;;;;;;;;;27.00;48.70;;;;;;3052203;19;4692;-23
2023/06/25 05:37:12;;;;;;;;;;;27.00;48.70;;;;;;3054522;19;4393;-23
2023/06/25 05:38:13;;;;;;;;;;;27.00;48.70;;;;;;3051199;19;4389;-23
2023/06/25 05:39:13;;;;;;;;;;;27.00;48.70;;;;;;3051155;19;4509;-23
2023/06/25 05:40:14;;;;;;;;;;;26.90;48.70;;;;;;3051689;19;4503;-24
2023/06/25 05:41:15;;;;;;;;;;;26.90;48.70;;;;;;3051711;19;4336;-25
2023/06/25 05:42:15;;;;;;;;;;;26.90;48.80;;;;;;3053638;19;4578;-25
2023/06/25 05:43:16;;;;;;;;;;;27.00;48.90;;;;;;3053966;19;4650;-23
2023/06/25 05:44:16;;;;;;;;;;;27.00;48.80;;;;;;3053040;19;4693;-25
2023/06/25 05:45:17;;;;;;;;;;;26.90;48.80;;;;;;3051555;19;4508;-23
2023/06/25 05:46:18;;;;;;;;;;;26.90;48.90;;;;;;3051625;19;4509;-29
2023/06/25 05:47:18;;;;;;;;;;;26.90;49.00;;;;;;3050990;19;4627;-23
2023/06/25 05:48:19;;;;;;;;;;;26.90;49.00;;;;;;3050560;19;4634;-23
2023/06/25 05:49:19;;;;;;;;;;;26.90;48.90;;;;;;3049356;19;4525;-24
2023/06/25 05:50:20;;;;;;;;;;;26.90;48.90;;;;;;3049580;19;4414;-23
2023/06/25 05:51:21;;;;;;;;;;;26.90;49.00;;;;;;3053859;19;4560;-25
2023/06/25 05:52:21;;;;;;;;;;;26.90;49.00;;;;;;3052247;19;4482;-25
2023/06/25 05:53:23;;;;;;;;;;;26.90;49.10;;;;;;3054456;19;4522;-28
2023/06/25 05:54:24;;;;;;;;;;;26.90;49.10;;;;;;3054862;19;4534;-25
2023/06/25 05:55:24;;;;;;;;;;;26.90;49.10;;;;;;3051809;19;4508;-25
2023/06/25 05:56:25;;;;;;;;;;;26.90;49.10;;;;;;3054269;19;4551;-22
2023/06/25 05:57:26;;;;;;;;;;;26.90;49.10;;;;;;3053706;19;4491;-24
2023/06/25 05:58:26;;;;;;;;;;;26.90;49.20;;;;;;3055004;19;4514;-23
2023/06/25 05:59:27;;;;;;;;;;;26.90;49.80;;;;;;3055072;19;4543;-26
2023/06/25 06:00:27;;;;;;;;;;;26.90;49.20;;;;;;3052140;19;4500;-24
2023/06/25 06:01:28;;;;;;;;;;;26.90;49.20;;;;;;3052075;19;4562;-24
2023/06/25 06:02:29;;;;;;;;;;;26.90;49.30;;;;;;3052634;19;4411;-24
2023/06/25 06:03:29;;;;;;;;;;;26.90;49.30;;;;;;3054253;19;4583;-25
2023/06/25 06:04:30;;;;;;;;;;;26.90;49.30;;;;;;3053502;19;4467;-27
2023/06/25 06:05:31;;;;;;;;;;;26.90;49.40;;;;;;3051426;19;4517;-26
2023/06/25 06:06:31;;;;;;;;;;;26.90;49.50;;;;;;3052681;19;4366;-29
2023/06/25 06:07:32;;;;;;;;;;;26.90;49.40;;;;;;3053764;19;4533;-23
2023/06/25 06:08:33;;;;;;;;;;;26.90;49.30;;;;;;3054261;19;4611;-23